createdAt,value
2019-05-01T00:00:56.979Z,10.18
2019-05-01T00:03:31.325Z,8.30
2019-05-01T00:06:02.610Z,10.35
2019-05-01T00:08:29.051Z,9.25
2019-05-01T00:10:55.596Z,14.33
2019-05-01T00:13:22.468Z,12.93
2019-05-01T00:15:50.406Z,8.95
2019-05-01T00:18:17.783Z,10.58
2019-05-01T00:20:44.053Z,9.80
2019-05-01T00:23:10.285Z,10.55
2019-05-01T00:25:36.510Z,9.38
2019-05-01T00:28:02.937Z,7.40
2019-05-01T00:30:31.167Z,11.50
2019-05-01T00:32:57.506Z,10.82
2019-05-01T00:35:23.937Z,9.98
2019-05-01T00:37:50.177Z,8.30
2019-05-01T00:40:16.499Z,9.73
2019-05-01T00:42:42.905Z,11.12
2019-05-01T00:45:09.226Z,7.80
2019-05-01T00:47:35.452Z,11.75
2019-05-01T00:50:05.489Z,10.47
2019-05-01T00:52:31.809Z,7.08
2019-05-01T00:54:59.937Z,10.60
2019-05-01T00:57:29.077Z,9.95
2019-05-01T01:02:40.852Z,13.30
2019-05-01T01:05:07.359Z,7.70
2019-05-01T01:07:33.981Z,11.50
2019-05-01T01:10:00.529Z,8.33
2019-05-01T01:12:26.889Z,11.30
2019-05-01T01:14:53.168Z,11.20
2019-05-01T01:17:19.403Z,10.05
2019-05-01T01:19:45.762Z,10.98
2019-05-01T01:22:12.153Z,9.43
2019-05-01T01:24:38.506Z,12.35
2019-05-01T01:27:04.921Z,9.30
2019-05-01T01:29:31.345Z,9.40
2019-05-01T01:31:57.757Z,9.90
2019-05-01T01:34:24.081Z,10.88
2019-05-01T01:36:50.396Z,9.38
2019-05-01T01:39:16.645Z,11.95
2019-05-01T01:41:43.277Z,13.35
2019-05-01T01:44:11.841Z,12.18
2019-05-01T01:46:41.177Z,8.63
2019-05-01T01:49:07.689Z,10.18
2019-05-01T01:51:34.125Z,10.35
2019-05-01T01:54:01.078Z,17.67
2019-05-01T01:56:27.597Z,11.75
2019-05-01T01:58:54.333Z,11.08
2019-05-01T02:01:34.297Z,8.10
2019-05-01T02:04:17.914Z,11.75
2019-05-01T02:06:44.657Z,8.95
2019-05-01T02:09:11.278Z,13.15
2019-05-01T02:11:38.007Z,10.18
2019-05-01T02:14:04.446Z,8.73
2019-05-01T02:16:30.770Z,11.78
2019-05-01T02:18:57.105Z,12.40
2019-05-01T02:21:23.333Z,12.85
2019-05-01T02:23:49.553Z,10.40
2019-05-01T02:26:17.877Z,9.28
2019-05-01T02:31:30.986Z,8.88
2019-05-01T02:33:58.914Z,12.45
2019-05-01T02:36:27.011Z,15.32
2019-05-01T02:38:55.350Z,9.08
2019-05-01T02:41:24.382Z,10.20
2019-05-01T02:43:54.433Z,11.65
2019-05-01T02:46:22.645Z,9.63
2019-05-01T02:49:01.694Z,10.18
2019-05-01T02:51:28.010Z,9.83
2019-05-01T02:53:55.039Z,10.90
2019-05-01T02:56:27.493Z,10.45
2019-05-01T02:58:55.925Z,9.83
2019-05-01T03:01:23.875Z,9.43
2019-05-01T03:03:51.476Z,10.48
2019-05-01T03:06:18.783Z,9.58
2019-05-01T03:08:45.604Z,13.03
2019-05-01T03:11:12.051Z,10.43
2019-05-01T03:13:41.861Z,11.40
2019-05-01T03:16:09.240Z,10.75
2019-05-01T03:18:37.581Z,11.40
2019-05-01T03:23:38.058Z,9.48
2019-05-01T03:26:04.966Z,10.65
2019-05-01T03:28:31.390Z,9.20
2019-05-01T03:30:57.743Z,11.95
2019-05-01T03:33:24.449Z,9.65
2019-05-01T03:35:51.378Z,11.65
2019-05-01T03:38:20.647Z,8.58
2019-05-01T03:40:47.774Z,10.60
2019-05-01T03:43:14.295Z,14.10
2019-05-01T03:45:41.612Z,10.85
2019-05-01T03:48:08.240Z,12.47
2019-05-01T03:50:34.670Z,10.43
2019-05-01T03:53:01.217Z,9.88
2019-05-01T03:55:27.690Z,15.13
2019-05-01T03:57:54.407Z,9.28
2019-05-01T04:00:31.261Z,13.10
2019-05-01T04:03:16.072Z,12.78
2019-05-01T04:05:42.894Z,11.53
2019-05-01T04:08:09.525Z,10.93
2019-05-01T04:10:36.168Z,10.30
2019-05-01T04:13:02.708Z,10.38
2019-05-01T04:15:29.105Z,11.03
2019-05-01T04:17:57.238Z,9.93
2019-05-01T04:22:50.164Z,10.10
2019-05-01T04:25:18.085Z,10.80
2019-05-01T04:27:46.547Z,12.15
2019-05-01T04:30:14.882Z,8.88
2019-05-01T04:32:51.830Z,9.75
2019-05-01T04:35:14.866Z,9.55
2019-05-01T04:37:41.385Z,10.95
2019-05-01T04:40:07.863Z,10.40
2019-05-01T04:42:34.230Z,11.83
2019-05-01T04:45:01.137Z,9.63
2019-05-01T04:47:27.966Z,10.43
2019-05-01T04:49:54.421Z,9.43
2019-05-01T04:52:20.800Z,10.38
2019-05-01T04:54:47.538Z,9.80
2019-05-01T04:57:13.881Z,9.73
2019-05-01T04:59:40.209Z,7.58
2019-05-01T05:02:08.937Z,9.63
2019-05-01T05:04:35.387Z,11.73
2019-05-01T05:07:01.798Z,11.22
2019-05-01T05:09:42.337Z,8.83
2019-05-01T05:12:16.957Z,11.25
2019-05-01T05:14:47.945Z,11.10
2019-05-01T05:17:22.112Z,10.03
2019-05-01T05:19:48.971Z,12.23
2019-05-01T05:22:16.683Z,9.18
2019-05-01T05:24:43.009Z,9.15
2019-05-01T05:27:11.353Z,8.63
2019-05-01T05:29:37.767Z,10.53
2019-05-01T05:32:05.489Z,10.23
2019-05-01T05:34:32.643Z,12.47
2019-05-01T05:37:01.970Z,9.68
2019-05-01T05:39:32.296Z,8.00
2019-05-01T05:42:00.593Z,9.60
2019-05-01T05:46:53.305Z,10.30
2019-05-01T05:49:19.770Z,9.88
2019-05-01T05:51:49.797Z,14.65
2019-05-01T05:54:31.512Z,11.18
2019-05-01T05:57:03.983Z,8.58
2019-05-01T05:59:42.724Z,8.88
2019-05-01T06:02:24.622Z,8.88
2019-05-01T06:04:55.657Z,8.38
2019-05-01T06:07:28.281Z,8.60
2019-05-01T06:10:00.228Z,10.18
2019-05-01T06:12:31.455Z,6.47
2019-05-01T06:15:05.886Z,8.13
2019-05-01T06:17:41.408Z,6.20
2019-05-01T06:20:10.061Z,7.05
2019-05-01T06:22:40.834Z,6.90
2019-05-01T06:25:22.334Z,7.20
2019-05-01T06:27:44.772Z,7.22
2019-05-01T06:30:12.627Z,8.73
2019-05-01T06:32:40.074Z,8.93
2019-05-01T06:35:06.931Z,7.65
2019-05-01T06:38:01.047Z,6.05
2019-05-01T06:40:43.841Z,7.53
2019-05-01T06:43:25.534Z,11.73
2019-05-01T06:46:11.650Z,8.13
2019-05-01T06:48:48.805Z,10.00
2019-05-01T06:51:34.533Z,7.65
2019-05-01T06:54:11.510Z,5.40
2019-05-01T06:56:36.457Z,6.40
2019-05-01T06:59:04.494Z,9.50
2019-05-01T07:01:31.422Z,6.80
2019-05-01T07:04:03.649Z,5.50
2019-05-01T07:11:20.578Z,5.65
2019-05-01T07:13:50.265Z,7.22
2019-05-01T07:16:16.698Z,7.03
2019-05-01T07:18:43.130Z,6.78
2019-05-01T07:21:09.353Z,5.10
2019-05-01T07:23:35.713Z,6.75
2019-05-01T07:26:02.021Z,7.12
2019-05-01T07:28:34.176Z,6.17
2019-05-01T07:31:00.316Z,6.05
2019-05-01T07:33:26.729Z,5.47
2019-05-01T07:35:54.080Z,7.17
2019-05-01T07:38:20.769Z,9.63
2019-05-01T07:40:47.700Z,6.45
2019-05-01T07:43:19.037Z,5.72
2019-05-01T07:45:49.221Z,6.97
2019-05-01T07:48:20.545Z,5.37
2019-05-01T07:50:47.305Z,5.25
2019-05-01T07:53:14.072Z,7.15
2019-05-01T07:55:40.875Z,5.97
2019-05-01T07:58:15.727Z,6.80
2019-05-01T08:01:06.894Z,6.55
2019-05-01T08:03:38.057Z,5.03
2019-05-01T08:06:03.365Z,5.47
2019-05-01T08:08:29.823Z,5.12
2019-05-01T08:10:59.948Z,5.40
2019-05-01T08:13:24.576Z,5.92
2019-05-01T08:15:51.062Z,4.87
2019-05-01T08:18:27.915Z,4.83
2019-05-01T08:20:55.274Z,8.43
2019-05-01T08:25:50.565Z,5.97
2019-05-01T08:28:18.704Z,6.53
2019-05-01T08:30:52.805Z,7.05
2019-05-01T08:33:20.059Z,7.40
2019-05-01T08:38:12.529Z,6.55
2019-05-01T08:40:38.757Z,8.00
2019-05-01T08:43:04.994Z,5.97
2019-05-01T08:45:48.283Z,5.58
2019-05-01T08:48:35.860Z,7.65
2019-05-01T08:51:00.459Z,6.85
2019-05-01T08:53:26.777Z,8.50
2019-05-01T08:55:53.016Z,7.03
2019-05-01T08:58:19.254Z,10.13
2019-05-01T09:00:45.573Z,5.72
2019-05-01T09:03:13.481Z,6.25
2019-05-01T09:05:40.053Z,8.15
2019-05-01T09:08:06.290Z,6.22
2019-05-01T09:10:33.620Z,6.50
2019-05-01T09:12:59.867Z,6.60
2019-05-01T09:15:26.193Z,4.67
2019-05-01T09:17:52.512Z,4.60
2019-05-01T09:20:18.765Z,4.62
2019-05-01T09:22:45.194Z,11.45
2019-05-01T09:25:13.829Z,6.72
2019-05-01T09:27:41.977Z,6.30
2019-05-01T09:30:26.769Z,6.15
2019-05-01T09:32:54.612Z,6.97
2019-05-01T09:37:48.057Z,5.92
2019-05-01T09:40:14.801Z,6.80
2019-05-01T09:42:41.037Z,6.17
2019-05-01T09:45:07.769Z,5.62
2019-05-01T09:47:34.097Z,7.70
2019-05-01T09:50:00.325Z,4.92
2019-05-01T09:52:28.452Z,5.15
2019-05-01T09:54:56.849Z,7.87
2019-05-01T09:57:23.068Z,7.33
2019-05-01T09:59:49.809Z,4.87
2019-05-01T10:02:16.073Z,5.33
2019-05-01T10:04:42.413Z,5.45
2019-05-01T10:07:08.856Z,6.95
2019-05-01T10:09:35.406Z,4.30
2019-05-01T10:12:01.633Z,4.67
2019-05-01T10:14:31.593Z,5.15
2019-05-01T10:17:00.086Z,7.53
2019-05-01T10:19:27.156Z,4.75
2019-05-01T10:21:57.989Z,4.57
2019-05-01T10:24:23.706Z,6.33
2019-05-01T10:26:55.066Z,6.25
2019-05-01T10:29:38.951Z,4.83
2019-05-01T10:32:07.281Z,5.92
2019-05-01T10:37:16.640Z,6.40
2019-05-01T10:39:42.866Z,4.37
2019-05-01T10:42:09.130Z,5.50
2019-05-01T10:44:35.353Z,7.30
2019-05-01T10:47:03.523Z,3.93
2019-05-01T10:49:32.478Z,5.37
2019-05-01T10:52:13.688Z,6.05
2019-05-01T10:54:30.226Z,5.40
2019-05-01T10:56:58.897Z,5.95
2019-05-01T10:59:24.585Z,6.42
2019-05-01T11:01:52.714Z,5.37
2019-05-01T11:04:18.948Z,5.85
2019-05-01T11:06:45.186Z,6.12
2019-05-01T11:09:12.213Z,5.75
2019-05-01T11:11:38.449Z,5.90
2019-05-01T11:14:04.783Z,8.58
2019-05-01T11:16:31.110Z,5.62
2019-05-01T11:18:57.352Z,3.98
2019-05-01T11:21:23.597Z,5.05
2019-05-01T11:23:51.124Z,7.15
2019-05-01T11:26:17.373Z,5.87
2019-05-01T11:28:44.696Z,4.97
2019-05-01T11:31:12.829Z,5.85
2019-05-01T11:33:46.838Z,5.78
2019-05-01T11:36:17.984Z,5.92
2019-05-01T11:38:46.113Z,6.33
2019-05-01T11:41:17.088Z,5.78
2019-05-01T11:43:43.532Z,5.97
2019-05-01T11:46:09.962Z,5.22
2019-05-01T11:48:36.288Z,4.60
2019-05-01T11:51:03.120Z,7.25
2019-05-01T11:53:29.445Z,4.90
2019-05-01T11:55:55.781Z,6.03
2019-05-01T11:58:22.151Z,5.30
2019-05-01T12:00:50.292Z,6.67
2019-05-01T12:05:42.689Z,4.40
2019-05-01T12:08:08.913Z,4.75
2019-05-01T12:10:35.171Z,4.78
2019-05-01T12:13:01.495Z,4.15
2019-05-01T12:15:27.722Z,4.70
2019-05-01T12:17:53.965Z,4.08
2019-05-01T12:20:20.890Z,5.15
2019-05-01T12:22:49.585Z,5.15
2019-05-01T12:27:43.361Z,5.28
2019-05-01T12:30:10.793Z,4.75
2019-05-01T12:32:42.827Z,3.33
2019-05-01T12:35:09.263Z,4.20
2019-05-01T12:37:37.516Z,6.40
2019-05-01T12:42:32.889Z,3.80
2019-05-01T12:47:44.111Z,3.87
2019-05-01T12:50:10.835Z,4.15
2019-05-01T12:52:45.170Z,3.72
2019-05-01T12:55:13.636Z,4.00
2019-05-01T12:57:40.062Z,6.87
2019-05-01T13:00:09.378Z,4.55
2019-05-01T13:02:35.962Z,7.78
2019-05-01T13:05:04.994Z,4.40
2019-05-01T13:07:31.339Z,4.50
2019-05-01T13:09:58.063Z,3.75
2019-05-01T13:12:24.499Z,3.87
2019-05-01T13:14:50.826Z,4.55
2019-05-01T13:17:17.066Z,4.03
2019-05-01T13:19:43.389Z,2.90
2019-05-01T13:22:09.630Z,3.52
2019-05-01T13:24:37.757Z,3.87
2019-05-01T13:29:33.973Z,3.50
2019-05-01T13:34:30.820Z,5.10
2019-05-01T13:37:03.226Z,5.12
2019-05-01T13:41:52.573Z,3.95
2019-05-01T13:44:19.008Z,3.42
2019-05-01T13:46:45.549Z,7.22
2019-05-01T13:49:11.870Z,4.80
2019-05-01T13:51:38.123Z,4.47
2019-05-01T13:54:06.342Z,7.28
2019-05-01T13:56:32.681Z,3.60
2019-05-01T13:58:59.273Z,3.75
2019-05-01T14:01:25.902Z,4.17
2019-05-01T14:03:52.225Z,3.62
2019-05-01T14:06:18.677Z,4.87
2019-05-01T14:08:44.907Z,4.55
2019-05-01T14:11:11.239Z,4.65
2019-05-01T14:13:37.580Z,3.58
2019-05-01T14:16:04.509Z,5.22
2019-05-01T14:18:30.736Z,4.47
2019-05-01T14:21:15.301Z,3.52
2019-05-01T14:24:00.114Z,4.87
2019-05-01T14:26:26.646Z,3.47
2019-05-01T14:28:52.961Z,4.28
2019-05-01T14:31:19.181Z,4.08
2019-05-01T14:33:45.417Z,3.45
2019-05-01T14:36:11.743Z,3.27
2019-05-01T14:38:37.977Z,3.50
2019-05-01T14:41:04.230Z,4.28
2019-05-01T14:43:30.457Z,4.08
2019-05-01T14:45:56.803Z,9.43
2019-05-01T14:48:23.170Z,5.92
2019-05-01T14:50:49.485Z,3.37
2019-05-01T14:53:15.723Z,4.50
2019-05-01T14:55:41.964Z,2.37
2019-05-01T14:58:08.201Z,2.15
2019-05-01T15:00:34.545Z,8.93
2019-05-01T15:03:01.382Z,2.27
2019-05-01T15:05:27.601Z,2.65
2019-05-01T15:07:53.844Z,2.90
2019-05-01T15:10:20.094Z,2.00
2019-05-01T15:12:48.344Z,3.83
2019-05-01T15:18:04.435Z,1.67
2019-05-01T15:20:30.759Z,1.30
2019-05-01T15:22:56.984Z,2.77
2019-05-01T15:25:23.293Z,1.92
2019-05-01T15:27:49.602Z,2.02
2019-05-01T15:30:16.830Z,4.00
2019-05-01T15:32:43.064Z,3.12
2019-05-01T15:35:09.486Z,3.47
2019-05-01T15:37:35.709Z,2.50
2019-05-01T15:40:06.665Z,3.15
2019-05-01T15:42:40.993Z,3.98
2019-05-01T15:45:07.854Z,4.50
2019-05-01T15:47:34.069Z,1.75
2019-05-01T15:50:00.321Z,2.00
2019-05-01T15:52:26.658Z,3.02
2019-05-01T15:54:52.893Z,2.22
2019-05-01T15:57:19.127Z,3.40
2019-05-01T15:59:46.366Z,2.17
2019-05-01T16:02:13.253Z,2.27
2019-05-01T16:04:39.781Z,1.62
2019-05-01T16:07:06.220Z,2.35
2019-05-01T16:09:32.453Z,1.95
2019-05-01T16:12:06.500Z,1.82
2019-05-01T16:14:32.935Z,3.47
2019-05-01T16:16:59.272Z,1.90
2019-05-01T16:19:25.597Z,2.95
2019-05-01T16:21:51.957Z,2.70
2019-05-01T16:24:18.176Z,3.00
2019-05-01T16:26:44.425Z,2.35
2019-05-01T16:29:10.646Z,2.17
2019-05-01T16:31:36.883Z,1.85
2019-05-01T16:34:03.386Z,2.27
2019-05-01T16:36:30.867Z,7.05
2019-05-01T16:39:04.610Z,3.40
2019-05-01T16:41:32.253Z,2.75
2019-05-01T16:43:58.478Z,2.62
2019-05-01T16:46:24.709Z,4.12
2019-05-01T16:48:50.936Z,3.00
2019-05-01T16:51:18.337Z,2.12
2019-05-01T16:53:44.577Z,2.35
2019-05-01T16:56:10.914Z,3.62
2019-05-01T16:58:37.561Z,3.30
2019-05-01T17:01:09.946Z,2.40
2019-05-01T17:03:38.181Z,3.47
2019-05-01T17:08:54.357Z,2.47
2019-05-01T17:11:23.784Z,4.72
2019-05-01T17:13:50.117Z,3.22
2019-05-01T17:16:16.655Z,4.53
2019-05-01T17:18:42.881Z,2.47
2019-05-01T17:21:09.315Z,3.85
2019-05-01T17:23:35.681Z,3.17
2019-05-01T17:26:01.993Z,3.87
2019-05-01T17:28:28.238Z,3.37
2019-05-01T17:30:56.496Z,2.08
2019-05-01T17:35:48.924Z,6.47
2019-05-01T17:38:15.280Z,3.85
2019-05-01T17:40:41.599Z,3.80
2019-05-01T17:43:12.816Z,3.35
2019-05-01T17:45:36.731Z,3.87
2019-05-01T17:48:03.394Z,4.72
2019-05-01T17:50:29.641Z,5.08
2019-05-01T17:52:55.969Z,5.35
2019-05-01T17:55:22.193Z,4.75
2019-05-01T17:57:48.421Z,3.67
2019-05-01T18:00:35.376Z,3.80
2019-05-01T18:03:18.571Z,7.55
2019-05-01T18:05:49.947Z,4.42
2019-05-01T18:08:16.464Z,4.10
2019-05-01T18:10:42.785Z,7.60
2019-05-01T18:13:09.057Z,3.65
2019-05-01T18:15:35.482Z,2.67
2019-05-01T18:18:01.704Z,3.62
2019-05-01T18:20:27.962Z,4.00
2019-05-01T18:23:08.343Z,2.40
2019-05-01T18:25:41.802Z,3.70
2019-05-01T18:28:13.434Z,3.65
2019-05-01T18:30:41.814Z,4.65
2019-05-01T18:33:08.258Z,4.37
2019-05-01T18:35:35.881Z,3.05
2019-05-01T18:38:11.632Z,2.92
2019-05-01T18:40:38.617Z,5.37
2019-05-01T18:45:52.185Z,4.30
2019-05-01T18:48:19.817Z,4.15
2019-05-01T18:50:49.366Z,2.05
2019-05-01T18:53:14.626Z,3.35
2019-05-01T18:55:41.933Z,4.45
2019-05-01T18:58:08.188Z,3.10
2019-05-01T19:00:34.637Z,2.85
2019-05-01T19:03:04.147Z,2.72
2019-05-01T19:07:55.260Z,3.35
2019-05-01T19:10:21.755Z,3.05
2019-05-01T19:12:48.078Z,4.20
2019-05-01T19:15:14.330Z,2.37
2019-05-01T19:17:40.654Z,3.80
2019-05-01T19:20:07.100Z,3.47
2019-05-01T19:22:33.373Z,3.17
2019-05-01T19:24:59.690Z,2.08
2019-05-01T19:27:26.055Z,2.70
2019-05-01T19:29:52.647Z,3.58
2019-05-01T19:32:20.202Z,3.08
2019-05-01T19:34:46.626Z,3.02
2019-05-01T19:37:16.412Z,3.02
2019-05-01T19:42:10.397Z,5.28
2019-05-01T19:44:36.991Z,1.95
2019-05-01T19:47:03.736Z,3.30
2019-05-01T19:49:30.897Z,2.70
2019-05-01T19:52:00.578Z,2.05
2019-05-01T19:54:28.010Z,2.12
2019-05-01T19:56:53.678Z,2.52
2019-05-01T19:59:19.905Z,1.67
2019-05-01T20:01:49.318Z,2.45
2019-05-01T20:04:15.111Z,1.45
2019-05-01T20:06:42.527Z,2.05
2019-05-01T20:09:08.968Z,1.45
2019-05-01T20:11:35.511Z,1.65
2019-05-01T20:14:01.751Z,2.17
2019-05-01T20:16:28.169Z,1.72
2019-05-01T20:18:54.424Z,1.82
2019-05-01T20:21:21.191Z,1.10
2019-05-01T20:23:47.509Z,2.12
2019-05-01T20:26:14.128Z,1.27
2019-05-01T20:28:40.466Z,1.77
2019-05-01T20:31:07.081Z,1.47
2019-05-01T20:33:39.077Z,3.75
2019-05-01T20:38:35.105Z,1.40
2019-05-01T20:41:01.438Z,2.15
2019-05-01T20:43:27.790Z,1.57
2019-05-01T20:45:54.148Z,1.17
2019-05-01T20:48:23.631Z,1.62
2019-05-01T20:50:49.591Z,1.95
2019-05-01T20:53:15.847Z,1.87
2019-05-01T20:55:44.242Z,1.82
2019-05-01T20:58:20.614Z,2.87
2019-05-01T21:00:53.312Z,1.75
2019-05-01T21:03:18.248Z,2.15
2019-05-01T21:05:47.653Z,1.22
2019-05-01T21:08:15.797Z,2.15
2019-05-01T21:13:12.032Z,1.32
2019-05-01T21:15:38.257Z,1.20
2019-05-01T21:18:04.549Z,1.52
2019-05-01T21:20:30.801Z,1.80
2019-05-01T21:22:57.041Z,1.35
2019-05-01T21:25:23.974Z,2.60
2019-05-01T21:27:50.437Z,2.83
2019-05-01T21:30:17.161Z,1.50
2019-05-01T21:32:44.296Z,2.10
2019-05-01T21:35:10.968Z,1.50
2019-05-01T21:37:38.369Z,1.82
2019-05-01T21:40:05.831Z,1.15
2019-05-01T21:42:32.691Z,2.40
2019-05-01T21:44:59.099Z,2.77
2019-05-01T21:47:25.326Z,2.20
2019-05-01T21:49:52.953Z,1.17
2019-05-01T21:52:23.049Z,1.00
2019-05-01T21:54:50.074Z,1.22
2019-05-01T21:57:17.402Z,1.00
2019-05-01T22:02:12.063Z,1.52
2019-05-01T22:04:38.436Z,1.12
2019-05-01T22:07:05.578Z,0.85
2019-05-01T22:09:31.886Z,0.95
2019-05-01T22:11:58.241Z,1.20
2019-05-01T22:14:31.075Z,1.20
2019-05-01T22:16:58.110Z,1.50
2019-05-01T22:19:26.638Z,1.72
2019-05-01T22:22:07.127Z,0.93
2019-05-01T22:24:35.587Z,1.12
2019-05-01T22:27:06.882Z,0.85
2019-05-01T22:29:47.458Z,1.42
2019-05-01T22:32:18.726Z,1.70
2019-05-01T22:34:49.763Z,0.62
2019-05-01T22:37:16.292Z,0.65
2019-05-01T22:39:45.997Z,1.92
2019-05-01T22:42:12.469Z,0.80
2019-05-01T22:44:38.794Z,0.65
2019-05-01T22:47:05.257Z,1.00
2019-05-01T22:49:31.558Z,0.57
2019-05-01T22:51:58.881Z,0.50
2019-05-01T22:54:25.189Z,0.78
2019-05-01T22:56:51.644Z,0.60
2019-05-01T22:59:17.962Z,1.22
2019-05-01T23:01:49.175Z,0.60
2019-05-01T23:04:17.220Z,0.72
2019-05-01T23:09:10.046Z,0.33
2019-05-01T23:11:38.685Z,0.30
2019-05-01T23:14:05.173Z,0.20
2019-05-01T23:16:33.619Z,0.30
2019-05-01T23:19:00.057Z,0.53
2019-05-01T23:21:26.472Z,0.75
2019-05-01T23:23:56.811Z,0.50
2019-05-01T23:28:49.150Z,0.78
2019-05-01T23:33:45.817Z,0.50
2019-05-01T23:38:38.306Z,0.42
2019-05-01T23:41:04.753Z,0.37
2019-05-01T23:43:31.104Z,0.40
2019-05-01T23:45:57.337Z,0.45
2019-05-01T23:48:23.573Z,0.68
2019-05-01T23:50:49.924Z,0.62
2019-05-01T23:53:16.308Z,1.07
2019-05-01T23:55:42.855Z,0.75
2019-05-01T23:58:09.086Z,0.72
